Aviation Digital Data Service (ADDS)

Output produced by METARs form (1411 UTC 10 July 2020)
found at http://www.aviationweather.gov/metar/data/
 
KILM 101353Z VRB04KT 10SM FEW016 28/23 A2990 RMK AO2 SLP124 T02780228
KILM 101129Z 1012/1112 35005KT P6SM SCT150 
     FM101500 31005KT P6SM SCT045 
     FM101800 26006KT P6SM VCTS SCT045CB 
     FM110000 21005KT P6SM SCT100